createdAt,value
2023-01-19T00:00:01.097Z,8.10
2023-01-19T00:03:05.592Z,7.70
2023-01-19T00:06:10.109Z,7.38
2023-01-19T00:09:13.965Z,7.70
2023-01-19T00:12:18.029Z,8.00
2023-01-19T00:15:21.940Z,7.93
2023-01-19T00:18:26.010Z,7.53
2023-01-19T00:21:30.223Z,7.50
2023-01-19T00:24:34.556Z,7.47
2023-01-19T00:27:38.697Z,7.50
2023-01-19T00:30:43.337Z,8.13
2023-01-19T00:33:49.148Z,8.00
2023-01-19T00:36:53.481Z,8.05
2023-01-19T00:39:57.202Z,8.20
2023-01-19T00:43:01.414Z,7.63
2023-01-19T00:46:05.923Z,8.20
2023-01-19T00:49:10.005Z,7.63
2023-01-19T00:52:14.310Z,8.00
2023-01-19T00:55:18.444Z,8.15
2023-01-19T00:58:22.812Z,8.27
2023-01-19T01:01:45.770Z,8.10
2023-01-19T01:04:54.752Z,8.02
2023-01-19T01:07:58.723Z,7.35
2023-01-19T01:11:03.156Z,7.05
2023-01-19T01:14:08.656Z,7.63
2023-01-19T01:17:14.188Z,7.65
2023-01-19T01:20:21.316Z,7.10
2023-01-19T01:23:25.091Z,7.05
2023-01-19T01:26:29.000Z,7.40
2023-01-19T01:29:35.265Z,7.18
2023-01-19T01:32:39.651Z,6.70
2023-01-19T01:35:43.743Z,7.07
2023-01-19T01:38:47.679Z,6.97
2023-01-19T01:41:52.011Z,7.00
2023-01-19T01:45:02.341Z,7.10
2023-01-19T01:48:15.652Z,6.95
2023-01-19T01:51:30.316Z,7.50
2023-01-19T01:54:37.457Z,6.88
2023-01-19T01:57:46.143Z,6.70
2023-01-19T02:01:08.935Z,6.50
2023-01-19T02:04:13.170Z,6.55
2023-01-19T02:07:45.773Z,6.85
2023-01-19T02:11:09.566Z,6.72
2023-01-19T02:14:13.568Z,7.13
2023-01-19T02:17:17.497Z,6.22
2023-01-19T02:20:26.001Z,6.28
2023-01-19T02:23:37.930Z,6.15
2023-01-19T02:26:44.981Z,6.45
2023-01-19T02:29:48.825Z,6.20
2023-01-19T02:32:53.921Z,6.32
2023-01-19T02:35:58.081Z,6.10
2023-01-19T02:39:04.422Z,5.93
2023-01-19T02:42:13.913Z,5.80
2023-01-19T02:45:21.737Z,6.63
2023-01-19T02:48:25.975Z,5.32
2023-01-19T02:51:30.164Z,6.18
2023-01-19T02:54:33.851Z,5.75
2023-01-19T02:57:59.656Z,5.35
2023-01-19T03:01:17.975Z,5.20
2023-01-19T03:04:33.976Z,6.68
2023-01-19T03:07:37.930Z,5.72
2023-01-19T03:11:04.703Z,5.10
2023-01-19T03:14:16.342Z,6.22
2023-01-19T03:17:22.265Z,5.43
2023-01-19T03:20:28.799Z,5.53
2023-01-19T03:23:35.330Z,5.55
2023-01-19T03:26:44.177Z,5.13
2023-01-19T03:29:52.912Z,5.00
2023-01-19T03:33:03.243Z,5.35
2023-01-19T03:36:17.115Z,5.40
2023-01-19T03:39:22.955Z,4.72
2023-01-19T03:42:28.670Z,4.82
2023-01-19T03:45:34.221Z,4.60
2023-01-19T03:48:38.542Z,4.20
2023-01-19T03:51:42.688Z,4.18
2023-01-19T03:54:49.723Z,3.70
2023-01-19T03:57:53.938Z,3.80
2023-01-19T04:00:57.922Z,3.83
2023-01-19T04:04:01.956Z,4.22
2023-01-19T04:07:06.383Z,3.97
2023-01-19T04:10:12.724Z,4.57
2023-01-19T04:13:16.836Z,4.50
2023-01-19T04:16:21.233Z,3.92
2023-01-19T04:19:25.456Z,4.38
2023-01-19T04:22:29.823Z,4.50
2023-01-19T04:25:33.867Z,4.13
2023-01-19T04:28:38.375Z,4.78
2023-01-19T04:31:43.162Z,4.82
2023-01-19T04:34:47.242Z,4.85
2023-01-19T04:37:51.224Z,5.10
2023-01-19T04:40:55.638Z,5.00
2023-01-19T04:43:59.728Z,4.97
2023-01-19T04:47:03.886Z,5.13
2023-01-19T04:50:09.241Z,4.88
2023-01-19T04:53:14.488Z,5.38
2023-01-19T04:56:18.633Z,5.50
2023-01-19T04:59:22.847Z,4.90
2023-01-19T05:02:26.975Z,5.30
2023-01-19T05:05:32.905Z,5.30
2023-01-19T05:08:36.883Z,5.72
2023-01-19T05:11:41.643Z,5.57
2023-01-19T05:14:46.008Z,5.75
2023-01-19T05:17:50.306Z,6.18
2023-01-19T05:20:54.444Z,6.07
2023-01-19T05:23:59.223Z,6.25
2023-01-19T05:27:03.823Z,6.78
2023-01-19T05:30:08.585Z,6.32
2023-01-19T05:33:12.620Z,6.72
2023-01-19T05:36:16.379Z,6.93
2023-01-19T05:39:20.394Z,6.97
2023-01-19T05:42:24.873Z,6.38
2023-01-19T05:45:29.003Z,7.13
2023-01-19T05:48:33.250Z,6.88
2023-01-19T05:51:38.899Z,7.28
2023-01-19T05:54:43.236Z,7.22
2023-01-19T05:57:47.644Z,8.13
2023-01-19T06:00:51.604Z,6.75
2023-01-19T06:03:55.683Z,7.90
2023-01-19T06:06:59.799Z,7.40
2023-01-19T06:10:04.123Z,7.90
2023-01-19T06:13:09.695Z,7.88
2023-01-19T06:16:14.675Z,7.72
2023-01-19T06:19:18.805Z,8.38
2023-01-19T06:22:23.089Z,8.32
2023-01-19T06:25:27.404Z,8.77
2023-01-19T06:28:31.855Z,8.07
2023-01-19T06:31:36.289Z,8.68
2023-01-19T06:34:43.624Z,8.57
2023-01-19T06:37:47.359Z,8.52
2023-01-19T06:40:58.346Z,8.98
2023-01-19T06:44:03.079Z,8.57
2023-01-19T06:47:15.835Z,8.73
2023-01-19T06:53:24.111Z,9.02
2023-01-19T06:56:28.163Z,10.40
2023-01-19T06:59:32.582Z,9.90
2023-01-19T07:02:37.087Z,9.50
2023-01-19T07:05:41.104Z,9.52
2023-01-19T07:08:44.992Z,9.88
2023-01-19T07:11:49.148Z,10.02
2023-01-19T07:14:53.428Z,9.43
2023-01-19T07:17:59.083Z,9.73
2023-01-19T07:21:04.523Z,9.40
2023-01-19T07:24:08.572Z,9.45
2023-01-19T07:27:12.924Z,9.43
2023-01-19T07:30:17.176Z,9.07
2023-01-19T07:33:24.815Z,9.55
2023-01-19T07:36:29.081Z,9.23
2023-01-19T07:39:33.517Z,9.95
2023-01-19T07:42:38.011Z,9.25
2023-01-19T07:45:42.020Z,9.18
2023-01-19T07:48:47.364Z,10.15
2023-01-19T07:51:51.528Z,9.95
2023-01-19T07:54:55.623Z,9.73
2023-01-19T07:57:59.452Z,8.90
2023-01-19T08:01:11.916Z,8.65
2023-01-19T08:04:16.319Z,9.60
2023-01-19T08:07:19.951Z,9.63
2023-01-19T08:10:26.696Z,9.60
2023-01-19T08:13:30.911Z,9.55
2023-01-19T08:16:36.159Z,9.48
2023-01-19T08:19:41.708Z,9.40
2023-01-19T08:22:47.500Z,10.15
2023-01-19T08:25:51.364Z,9.82
2023-01-19T08:28:57.727Z,9.35
2023-01-19T08:32:03.042Z,10.13
2023-01-19T08:35:07.769Z,10.23
2023-01-19T08:38:11.855Z,9.88
2023-01-19T08:41:18.773Z,9.38
2023-01-19T08:44:22.745Z,10.35
2023-01-19T08:47:26.928Z,9.65
2023-01-19T08:50:32.876Z,9.40
2023-01-19T08:53:36.863Z,8.82
2023-01-19T08:56:41.395Z,8.63
2023-01-19T08:59:47.397Z,9.30
2023-01-19T09:02:51.561Z,9.50
2023-01-19T09:05:55.515Z,8.57
2023-01-19T09:08:59.752Z,9.15
2023-01-19T09:12:04.355Z,9.43
2023-01-19T09:15:10.884Z,9.40
2023-01-19T09:18:18.099Z,8.98
2023-01-19T09:21:22.363Z,8.80
2023-01-19T09:24:26.682Z,8.25
2023-01-19T09:27:30.832Z,8.20
2023-01-19T09:30:37.461Z,7.95
2023-01-19T09:33:41.350Z,9.15
2023-01-19T09:36:47.221Z,9.10
2023-01-19T09:39:51.630Z,9.05
2023-01-19T09:42:59.514Z,8.55
2023-01-19T09:46:16.153Z,9.02
2023-01-19T09:49:31.500Z,8.52
2023-01-19T09:52:39.555Z,8.80
2023-01-19T09:55:43.515Z,8.45
2023-01-19T09:58:49.663Z,8.80
2023-01-19T10:02:41.865Z,8.80
2023-01-19T10:05:50.924Z,8.73
2023-01-19T10:09:11.814Z,8.88
2023-01-19T10:12:43.809Z,8.77
2023-01-19T10:16:09.413Z,8.57
2023-01-19T10:19:46.477Z,9.07
2023-01-19T10:22:51.055Z,10.50
2023-01-19T10:25:57.321Z,9.05
2023-01-19T10:29:13.628Z,9.20
2023-01-19T10:32:22.488Z,9.07
2023-01-19T10:35:26.647Z,8.90
2023-01-19T10:38:34.075Z,8.80
2023-01-19T10:41:51.494Z,9.32
2023-01-19T10:44:55.869Z,9.02
2023-01-19T10:48:07.199Z,9.00
2023-01-19T10:51:11.745Z,8.93
2023-01-19T10:54:15.962Z,8.55
2023-01-19T10:57:32.997Z,8.32
2023-01-19T11:00:41.486Z,9.40
2023-01-19T11:03:46.093Z,8.95
2023-01-19T11:06:49.976Z,8.60
2023-01-19T11:10:15.949Z,8.70
2023-01-19T11:13:19.827Z,8.02
2023-01-19T11:16:29.062Z,8.90
2023-01-19T11:19:33.871Z,8.88
2023-01-19T11:22:37.886Z,8.20
2023-01-19T11:25:47.368Z,8.20
2023-01-19T11:28:54.671Z,8.52
2023-01-19T11:32:11.385Z,9.07
2023-01-19T11:35:39.981Z,8.65
2023-01-19T11:38:47.037Z,8.65
2023-01-19T11:42:02.964Z,7.95
2023-01-19T11:45:15.800Z,9.18
2023-01-19T11:48:43.059Z,8.63
2023-01-19T11:51:59.766Z,8.68
2023-01-19T11:55:34.109Z,8.23
2023-01-19T11:58:44.382Z,8.63
2023-01-19T12:01:54.791Z,8.68
2023-01-19T12:05:04.799Z,7.68
2023-01-19T12:08:16.543Z,7.70
2023-01-19T12:11:26.275Z,7.20
2023-01-19T12:14:42.269Z,7.72
2023-01-19T12:17:52.213Z,7.72
2023-01-19T12:20:56.551Z,7.40
2023-01-19T12:24:03.573Z,6.85
2023-01-19T12:27:38.365Z,6.70
2023-01-19T12:30:50.238Z,7.82
2023-01-19T12:33:54.586Z,6.80
2023-01-19T12:37:03.751Z,7.03
2023-01-19T12:40:19.724Z,6.50
2023-01-19T12:43:24.614Z,6.90
2023-01-19T12:46:31.886Z,6.63
2023-01-19T12:49:38.878Z,7.20
2023-01-19T12:52:51.563Z,6.60
2023-01-19T12:56:00.994Z,6.28
2023-01-19T12:59:06.472Z,7.00
2023-01-19T13:02:46.495Z,6.90
2023-01-19T13:05:56.421Z,6.72
2023-01-19T13:09:01.271Z,7.80
2023-01-19T13:12:14.547Z,6.75
2023-01-19T13:15:35.307Z,7.43
2023-01-19T13:18:42.066Z,7.50
2023-01-19T13:21:48.212Z,7.63
2023-01-19T13:25:07.183Z,6.90
2023-01-19T13:28:16.354Z,7.30
2023-01-19T13:31:21.956Z,7.00
2023-01-19T13:34:28.194Z,7.50
2023-01-19T13:37:44.356Z,6.50
2023-01-19T13:40:49.258Z,6.95
2023-01-19T13:44:09.066Z,7.45
2023-01-19T13:47:19.486Z,6.97
2023-01-19T13:50:31.673Z,6.82
2023-01-19T13:53:36.591Z,6.17
2023-01-19T13:56:42.843Z,6.78
2023-01-19T14:00:14.786Z,6.45
2023-01-19T14:03:25.417Z,6.25
2023-01-19T14:06:36.224Z,6.22
2023-01-19T14:09:40.362Z,6.40
2023-01-19T14:12:58.636Z,6.03
2023-01-19T14:16:10.679Z,6.35
2023-01-19T14:19:14.512Z,6.15
2023-01-19T14:22:18.784Z,6.30
2023-01-19T14:25:29.139Z,5.90
2023-01-19T14:28:43.338Z,6.20
2023-01-19T14:31:49.096Z,6.43
2023-01-19T14:35:04.506Z,6.03
2023-01-19T14:38:14.106Z,6.20
2023-01-19T14:41:48.040Z,5.90
2023-01-19T14:48:01.076Z,5.93
2023-01-19T14:51:05.837Z,6.70
2023-01-19T14:54:18.848Z,5.88
2023-01-19T14:57:23.148Z,6.72
2023-01-19T15:00:27.561Z,6.00
2023-01-19T15:03:44.740Z,5.95
2023-01-19T15:06:49.736Z,6.03
2023-01-19T15:09:53.945Z,6.05
2023-01-19T15:12:59.684Z,5.70
2023-01-19T15:16:04.544Z,6.22
2023-01-19T15:19:13.359Z,5.65
2023-01-19T15:22:17.841Z,5.30
2023-01-19T15:25:27.062Z,6.03
2023-01-19T15:28:31.723Z,5.10
2023-01-19T15:31:36.193Z,5.40
2023-01-19T15:34:40.673Z,6.00
2023-01-19T15:37:46.135Z,5.43
2023-01-19T15:40:51.694Z,5.30
2023-01-19T15:43:56.247Z,5.20
2023-01-19T15:47:00.091Z,5.63
2023-01-19T15:50:04.518Z,11.48
2023-01-19T15:53:15.006Z,14.38
2023-01-19T15:56:26.352Z,11.63
2023-01-19T15:59:30.352Z,16.45
2023-01-19T16:02:35.489Z,9.10
2023-01-19T16:05:43.744Z,10.68
2023-01-19T16:08:47.748Z,8.55
2023-01-19T16:11:56.828Z,8.27
2023-01-19T16:15:01.034Z,12.23
2023-01-19T16:18:05.808Z,8.15
2023-01-19T16:21:10.131Z,9.18
2023-01-19T16:24:14.058Z,8.35
2023-01-19T16:27:18.076Z,8.52
2023-01-19T16:30:22.308Z,11.27
2023-01-19T16:33:26.622Z,9.98
2023-01-19T16:36:32.620Z,7.00
2023-01-19T16:39:36.587Z,7.03
2023-01-19T16:42:40.757Z,6.63
2023-01-19T16:46:00.026Z,6.57
2023-01-19T16:49:07.010Z,6.47
2023-01-19T16:52:11.793Z,7.60
2023-01-19T16:55:15.827Z,6.75
2023-01-19T16:58:19.736Z,6.85
2023-01-19T17:01:25.994Z,6.75
2023-01-19T17:04:30.348Z,8.13
2023-01-19T17:07:34.810Z,8.07
2023-01-19T17:10:40.176Z,7.20
2023-01-19T17:13:44.486Z,6.10
2023-01-19T17:16:48.816Z,6.95
2023-01-19T17:19:52.439Z,6.57
2023-01-19T17:22:56.853Z,6.97
2023-01-19T17:26:01.024Z,7.07
2023-01-19T17:29:07.229Z,6.97
2023-01-19T17:32:11.356Z,6.70
2023-01-19T17:35:15.609Z,7.53
2023-01-19T17:38:19.861Z,6.75
2023-01-19T17:41:29.467Z,7.13
2023-01-19T17:44:33.318Z,7.15
2023-01-19T17:47:38.297Z,7.25
2023-01-19T17:50:42.013Z,7.00
2023-01-19T17:53:46.079Z,7.75
2023-01-19T17:56:50.909Z,7.72
2023-01-19T17:59:55.321Z,7.38
2023-01-19T18:02:59.571Z,6.85
2023-01-19T18:06:03.788Z,6.53
2023-01-19T18:09:08.196Z,6.72
2023-01-19T18:12:12.550Z,6.78
2023-01-19T18:15:17.071Z,7.05
2023-01-19T18:18:21.463Z,6.70
2023-01-19T18:21:28.128Z,7.22
2023-01-19T18:24:32.484Z,7.07
2023-01-19T18:27:36.432Z,7.22
2023-01-19T18:30:40.489Z,7.35
2023-01-19T18:33:45.025Z,7.45
2023-01-19T18:36:49.147Z,6.68
2023-01-19T18:39:54.864Z,7.30
2023-01-19T18:42:58.669Z,7.45
2023-01-19T18:46:03.006Z,7.95
2023-01-19T18:49:07.491Z,7.82
2023-01-19T18:52:11.577Z,8.43
2023-01-19T18:55:15.725Z,8.60
2023-01-19T18:58:20.709Z,8.18
2023-01-19T19:01:27.338Z,7.93
2023-01-19T19:04:31.470Z,8.38
2023-01-19T19:07:37.463Z,8.15
2023-01-19T19:10:42.144Z,8.38
2023-01-19T19:13:45.943Z,8.93
2023-01-19T19:16:50.157Z,8.75
2023-01-19T19:19:54.332Z,8.60
2023-01-19T19:22:58.321Z,8.20
2023-01-19T19:26:12.195Z,8.27
2023-01-19T19:29:16.052Z,8.45
2023-01-19T19:32:20.946Z,8.85
2023-01-19T19:35:25.820Z,9.32
2023-01-19T19:38:30.383Z,9.75
2023-01-19T19:41:34.540Z,9.52
2023-01-19T19:44:38.971Z,10.48
2023-01-19T19:47:43.842Z,10.02
2023-01-19T19:50:47.964Z,10.25
2023-01-19T19:53:55.216Z,10.43
2023-01-19T19:56:59.408Z,10.05
2023-01-19T20:00:05.268Z,10.50
2023-01-19T20:03:13.401Z,9.98
2023-01-19T20:06:21.324Z,10.48
2023-01-19T20:09:25.468Z,10.45
2023-01-19T20:12:29.351Z,10.45
2023-01-19T20:15:37.847Z,10.38
2023-01-19T20:18:44.231Z,10.77
2023-01-19T20:21:48.203Z,10.20
2023-01-19T20:24:52.253Z,10.27
2023-01-19T20:27:57.008Z,10.13
2023-01-19T20:31:16.322Z,9.57
2023-01-19T20:34:23.623Z,9.60
2023-01-19T20:37:27.912Z,9.40
2023-01-19T20:40:31.902Z,10.70
2023-01-19T20:43:36.060Z,9.18
2023-01-19T20:46:40.204Z,10.43
2023-01-19T20:49:44.530Z,10.23
2023-01-19T20:52:49.980Z,9.80
2023-01-19T20:55:54.040Z,9.75
2023-01-19T20:58:59.187Z,9.55
2023-01-19T21:02:03.344Z,10.60
2023-01-19T21:05:07.794Z,9.82
2023-01-19T21:08:13.352Z,10.38
2023-01-19T21:11:20.776Z,10.63
2023-01-19T21:14:24.531Z,10.02
2023-01-19T21:17:28.548Z,10.00
2023-01-19T21:20:33.056Z,10.20
2023-01-19T21:23:36.893Z,10.25
2023-01-19T21:26:41.757Z,9.82
2023-01-19T21:29:48.261Z,9.90
2023-01-19T21:32:52.574Z,9.48
2023-01-19T21:35:57.662Z,8.95
2023-01-19T21:39:01.719Z,9.15
2023-01-19T21:42:06.013Z,9.13
2023-01-19T21:45:10.839Z,9.65
2023-01-19T21:48:16.883Z,10.00
2023-01-19T21:51:20.909Z,9.02
2023-01-19T21:54:24.698Z,9.43
2023-01-19T21:57:28.893Z,10.18
2023-01-19T22:00:32.906Z,10.10
2023-01-19T22:03:37.185Z,10.35
2023-01-19T22:06:41.192Z,10.07
2023-01-19T22:09:44.831Z,9.40
2023-01-19T22:12:48.744Z,9.43
2023-01-19T22:16:00.070Z,9.60
2023-01-19T22:19:03.911Z,9.63
2023-01-19T22:22:08.079Z,9.10
2023-01-19T22:25:12.417Z,9.75
2023-01-19T22:28:16.717Z,10.15
2023-01-19T22:31:20.907Z,9.05
2023-01-19T22:34:25.510Z,9.98
2023-01-19T22:37:29.636Z,9.25
2023-01-19T22:40:33.862Z,9.65
2023-01-19T22:43:38.196Z,9.68
2023-01-19T22:46:42.818Z,9.90
2023-01-19T22:49:46.804Z,9.43
2023-01-19T22:52:55.259Z,9.80
2023-01-19T22:55:59.398Z,9.95
2023-01-19T22:59:04.793Z,10.48
2023-01-19T23:02:09.279Z,9.82
2023-01-19T23:05:13.648Z,10.68
2023-01-19T23:08:18.371Z,10.63
2023-01-19T23:11:25.681Z,10.73
2023-01-19T23:14:30.064Z,10.40
2023-01-19T23:17:33.993Z,10.38
2023-01-19T23:20:38.114Z,10.88
2023-01-19T23:23:42.978Z,10.88
2023-01-19T23:26:49.208Z,10.98
2023-01-19T23:29:53.057Z,9.98
2023-01-19T23:32:57.212Z,10.75
2023-01-19T23:36:01.152Z,10.40
2023-01-19T23:39:11.328Z,10.30
2023-01-19T23:42:15.212Z,10.60
2023-01-19T23:45:19.201Z,9.93
2023-01-19T23:48:22.921Z,10.27
2023-01-19T23:51:29.287Z,10.35
2023-01-19T23:54:33.427Z,9.98
2023-01-19T23:57:37.537Z,10.43
